sensor_id;sensor_type;location;lat;lon;timestamp;P1;durP1;ratioP1;P2;durP2;ratioP2
74471;SDS011;62920;53.572;10.050;2023-04-26T00:01:10;4.07;;;0.80;;
74471;SDS011;62920;53.572;10.050;2023-04-26T00:03:36;3.95;;;0.80;;
74471;SDS011;62920;53.572;10.050;2023-04-26T00:06:04;3.90;;;0.90;;
74471;SDS011;62920;53.572;10.050;2023-04-26T00:08:32;6.90;;;0.60;;
74471;SDS011;62920;53.572;10.050;2023-04-26T00:10:58;6.22;;;1.30;;
74471;SDS011;62920;53.572;10.050;2023-04-26T00:13:23;2.05;;;0.52;;
74471;SDS011;62920;53.572;10.050;2023-04-26T00:15:49;9.48;;;0.77;;
74471;SDS011;62920;53.572;10.050;2023-04-26T00:18:14;3.33;;;0.50;;
74471;SDS011;62920;53.572;10.050;2023-04-26T00:20:40;6.28;;;0.85;;
74471;SDS011;62920;53.572;10.050;2023-04-26T00:23:06;5.13;;;0.80;;
74471;SDS011;62920;53.572;10.050;2023-04-26T00:25:34;3.53;;;0.90;;
74471;SDS011;62920;53.572;10.050;2023-04-26T00:27:59;6.95;;;1.08;;
74471;SDS011;62920;53.572;10.050;2023-04-26T00:30:25;5.93;;;1.00;;
74471;SDS011;62920;53.572;10.050;2023-04-26T00:32:51;8.07;;;1.00;;
74471;SDS011;62920;53.572;10.050;2023-04-26T00:35:16;4.72;;;0.88;;
74471;SDS011;62920;53.572;10.050;2023-04-26T00:37:42;7.22;;;0.80;;
74471;SDS011;62920;53.572;10.050;2023-04-26T00:40:07;4.20;;;0.57;;
74471;SDS011;62920;53.572;10.050;2023-04-26T00:42:33;4.63;;;0.63;;
74471;SDS011;62920;53.572;10.050;2023-04-26T00:44:59;7.03;;;0.68;;
74471;SDS011;62920;53.572;10.050;2023-04-26T00:47:24;6.80;;;0.77;;
74471;SDS011;62920;53.572;10.050;2023-04-26T00:49:50;4.57;;;0.80;;
74471;SDS011;62920;53.572;10.050;2023-04-26T00:52:15;10.25;;;1.25;;
74471;SDS011;62920;53.572;10.050;2023-04-26T00:54:41;8.02;;;1.05;;
74471;SDS011;62920;53.572;10.050;2023-04-26T00:57:06;5.38;;;0.50;;
74471;SDS011;62920;53.572;10.050;2023-04-26T00:59:33;6.93;;;0.75;;
74471;SDS011;62920;53.572;10.050;2023-04-26T01:02:01;6.15;;;0.88;;
74471;SDS011;62920;53.572;10.050;2023-04-26T01:04:27;3.92;;;0.63;;
74471;SDS011;62920;53.572;10.050;2023-04-26T01:06:54;8.07;;;0.90;;
74471;SDS011;62920;53.572;10.050;2023-04-26T01:09:20;6.78;;;1.02;;
74471;SDS011;62920;53.572;10.050;2023-04-26T01:11:46;9.50;;;1.00;;
74471;SDS011;62920;53.572;10.050;2023-04-26T01:14:12;3.47;;;0.60;;
74471;SDS011;62920;53.572;10.050;2023-04-26T01:16:38;4.63;;;0.93;;
74471;SDS011;62920;53.572;10.050;2023-04-26T01:19:08;5.03;;;1.00;;
74471;SDS011;62920;53.572;10.050;2023-04-26T01:21:37;4.38;;;0.80;;
74471;SDS011;62920;53.572;10.050;2023-04-26T01:24:02;3.63;;;0.98;;
74471;SDS011;62920;53.572;10.050;2023-04-26T01:26:28;10.18;;;1.13;;
74471;SDS011;62920;53.572;10.050;2023-04-26T01:28:55;5.68;;;1.23;;
74471;SDS011;62920;53.572;10.050;2023-04-26T01:31:20;7.00;;;1.23;;
74471;SDS011;62920;53.572;10.050;2023-04-26T01:33:46;8.07;;;1.30;;
74471;SDS011;62920;53.572;10.050;2023-04-26T01:36:11;9.43;;;1.48;;
74471;SDS011;62920;53.572;10.050;2023-04-26T01:38:37;6.78;;;1.20;;
74471;SDS011;62920;53.572;10.050;2023-04-26T01:41:02;7.43;;;1.23;;
74471;SDS011;62920;53.572;10.050;2023-04-26T01:43:28;7.75;;;1.30;;
74471;SDS011;62920;53.572;10.050;2023-04-26T01:45:53;7.07;;;1.20;;
74471;SDS011;62920;53.572;10.050;2023-04-26T01:48:19;6.63;;;1.17;;
74471;SDS011;62920;53.572;10.050;2023-04-26T01:50:44;7.30;;;1.45;;
74471;SDS011;62920;53.572;10.050;2023-04-26T01:53:09;9.85;;;1.40;;
74471;SDS011;62920;53.572;10.050;2023-04-26T01:55:35;5.35;;;1.40;;
74471;SDS011;62920;53.572;10.050;2023-04-26T01:58:00;5.85;;;1.48;;
74471;SDS011;62920;53.572;10.050;2023-04-26T02:00:27;9.18;;;1.65;;
74471;SDS011;62920;53.572;10.050;2023-04-26T02:02:53;10.18;;;1.23;;
74471;SDS011;62920;53.572;10.050;2023-04-26T02:05:19;9.68;;;1.60;;
74471;SDS011;62920;53.572;10.050;2023-04-26T02:07:45;9.38;;;1.38;;
74471;SDS011;62920;53.572;10.050;2023-04-26T02:10:10;8.15;;;1.30;;
74471;SDS011;62920;53.572;10.050;2023-04-26T02:12:36;6.30;;;1.17;;
74471;SDS011;62920;53.572;10.050;2023-04-26T02:15:01;9.00;;;1.25;;
74471;SDS011;62920;53.572;10.050;2023-04-26T02:17:27;5.10;;;1.40;;
74471;SDS011;62920;53.572;10.050;2023-04-26T02:19:53;6.22;;;1.52;;
74471;SDS011;62920;53.572;10.050;2023-04-26T02:22:19;6.18;;;1.80;;
74471;SDS011;62920;53.572;10.050;2023-04-26T02:24:48;5.47;;;1.27;;
74471;SDS011;62920;53.572;10.050;2023-04-26T02:27:14;9.50;;;1.40;;
74471;SDS011;62920;53.572;10.050;2023-04-26T02:29:39;6.22;;;1.25;;
74471;SDS011;62920;53.572;10.050;2023-04-26T02:32:06;6.75;;;1.55;;
74471;SDS011;62920;53.572;10.050;2023-04-26T02:34:32;9.15;;;1.63;;
74471;SDS011;62920;53.572;10.050;2023-04-26T02:36:57;8.70;;;1.70;;
74471;SDS011;62920;53.572;10.050;2023-04-26T02:39:23;7.22;;;1.55;;
74471;SDS011;62920;53.572;10.050;2023-04-26T02:41:48;9.10;;;1.58;;
74471;SDS011;62920;53.572;10.050;2023-04-26T02:44:13;2.67;;;1.00;;
74471;SDS011;62920;53.572;10.050;2023-04-26T02:46:39;4.10;;;1.02;;
74471;SDS011;62920;53.572;10.050;2023-04-26T02:49:04;8.63;;;1.27;;
74471;SDS011;62920;53.572;10.050;2023-04-26T02:51:30;4.75;;;1.50;;
74471;SDS011;62920;53.572;10.050;2023-04-26T02:53:56;6.18;;;1.42;;
74471;SDS011;62920;53.572;10.050;2023-04-26T02:56:21;7.13;;;1.20;;
74471;SDS011;62920;53.572;10.050;2023-04-26T02:58:47;5.15;;;0.88;;
74471;SDS011;62920;53.572;10.050;2023-04-26T03:01:12;5.63;;;0.93;;
74471;SDS011;62920;53.572;10.050;2023-04-26T03:03:38;7.90;;;1.30;;
74471;SDS011;62920;53.572;10.050;2023-04-26T03:06:04;8.50;;;1.70;;
74471;SDS011;62920;53.572;10.050;2023-04-26T03:08:29;4.35;;;1.13;;
74471;SDS011;62920;53.572;10.050;2023-04-26T03:10:55;4.35;;;1.00;;
74471;SDS011;62920;53.572;10.050;2023-04-26T03:13:23;7.32;;;1.33;;
74471;SDS011;62920;53.572;10.050;2023-04-26T03:15:49;8.43;;;2.17;;
74471;SDS011;62920;53.572;10.050;2023-04-26T03:18:16;12.00;;;1.45;;
74471;SDS011;62920;53.572;10.050;2023-04-26T03:20:41;7.90;;;1.48;;
74471;SDS011;62920;53.572;10.050;2023-04-26T03:23:07;4.85;;;1.20;;
74471;SDS011;62920;53.572;10.050;2023-04-26T03:25:33;6.53;;;1.65;;
74471;SDS011;62920;53.572;10.050;2023-04-26T03:27:58;7.25;;;1.45;;
74471;SDS011;62920;53.572;10.050;2023-04-26T03:30:23;7.85;;;1.50;;
74471;SDS011;62920;53.572;10.050;2023-04-26T03:32:49;5.20;;;1.58;;
74471;SDS011;62920;53.572;10.050;2023-04-26T03:35:14;10.52;;;1.98;;
74471;SDS011;62920;53.572;10.050;2023-04-26T03:37:40;10.07;;;1.67;;
74471;SDS011;62920;53.572;10.050;2023-04-26T03:40:08;11.80;;;1.73;;
74471;SDS011;62920;53.572;10.050;2023-04-26T03:42:34;4.90;;;1.60;;
74471;SDS011;62920;53.572;10.050;2023-04-26T03:45:00;6.25;;;1.95;;
74471;SDS011;62920;53.572;10.050;2023-04-26T03:47:28;10.95;;;1.70;;
74471;SDS011;62920;53.572;10.050;2023-04-26T03:49:56;7.88;;;1.90;;
74471;SDS011;62920;53.572;10.050;2023-04-26T03:52:22;8.35;;;1.88;;
74471;SDS011;62920;53.572;10.050;2023-04-26T03:54:47;8.63;;;1.50;;
74471;SDS011;62920;53.572;10.050;2023-04-26T03:57:13;4.43;;;1.45;;
74471;SDS011;62920;53.572;10.050;2023-04-26T03:59:38;8.68;;;1.23;;
74471;SDS011;62920;53.572;10.050;2023-04-26T04:02:03;7.20;;;1.30;;
74471;SDS011;62920;53.572;10.050;2023-04-26T04:04:29;7.70;;;1.30;;
74471;SDS011;62920;53.572;10.050;2023-04-26T04:06:54;7.35;;;1.30;;
74471;SDS011;62920;53.572;10.050;2023-04-26T04:09:20;9.95;;;1.23;;
74471;SDS011;62920;53.572;10.050;2023-04-26T04:11:45;6.13;;;1.45;;
74471;SDS011;62920;53.572;10.050;2023-04-26T04:14:10;4.13;;;1.05;;
74471;SDS011;62920;53.572;10.050;2023-04-26T04:16:36;6.22;;;1.50;;
74471;SDS011;62920;53.572;10.050;2023-04-26T04:19:01;8.40;;;1.50;;
74471;SDS011;62920;53.572;10.050;2023-04-26T04:21:27;4.38;;;1.40;;
74471;SDS011;62920;53.572;10.050;2023-04-26T04:23:53;4.82;;;1.42;;
74471;SDS011;62920;53.572;10.050;2023-04-26T04:26:18;8.88;;;1.50;;
74471;SDS011;62920;53.572;10.050;2023-04-26T04:28:45;5.20;;;1.10;;
74471;SDS011;62920;53.572;10.050;2023-04-26T04:31:11;6.00;;;1.42;;
74471;SDS011;62920;53.572;10.050;2023-04-26T04:33:37;7.68;;;2.20;;
74471;SDS011;62920;53.572;10.050;2023-04-26T04:36:02;4.25;;;1.35;;
74471;SDS011;62920;53.572;10.050;2023-04-26T04:38:28;5.93;;;1.27;;
74471;SDS011;62920;53.572;10.050;2023-04-26T04:40:53;4.82;;;1.58;;
74471;SDS011;62920;53.572;10.050;2023-04-26T04:43:19;9.25;;;1.80;;
74471;SDS011;62920;53.572;10.050;2023-04-26T04:45:45;5.95;;;1.70;;
74471;SDS011;62920;53.572;10.050;2023-04-26T04:48:11;7.18;;;2.00;;
74471;SDS011;62920;53.572;10.050;2023-04-26T04:50:40;5.68;;;1.50;;
74471;SDS011;62920;53.572;10.050;2023-04-26T04:53:08;6.07;;;1.58;;
74471;SDS011;62920;53.572;10.050;2023-04-26T04:55:34;8.07;;;1.60;;
74471;SDS011;62920;53.572;10.050;2023-04-26T04:58:00;5.07;;;1.73;;
74471;SDS011;62920;53.572;10.050;2023-04-26T05:00:27;5.57;;;1.73;;
74471;SDS011;62920;53.572;10.050;2023-04-26T05:02:53;5.80;;;1.67;;
74471;SDS011;62920;53.572;10.050;2023-04-26T05:05:18;5.65;;;1.90;;
74471;SDS011;62920;53.572;10.050;2023-04-26T05:07:43;7.82;;;1.80;;
74471;SDS011;62920;53.572;10.050;2023-04-26T05:10:09;6.60;;;1.98;;
74471;SDS011;62920;53.572;10.050;2023-04-26T05:12:35;6.00;;;1.88;;
74471;SDS011;62920;53.572;10.050;2023-04-26T05:15:00;6.13;;;1.90;;
74471;SDS011;62920;53.572;10.050;2023-04-26T05:17:26;8.38;;;1.77;;
74471;SDS011;62920;53.572;10.050;2023-04-26T05:19:51;7.72;;;2.00;;
74471;SDS011;62920;53.572;10.050;2023-04-26T05:22:16;9.10;;;1.75;;
74471;SDS011;62920;53.572;10.050;2023-04-26T05:24:45;6.25;;;1.90;;
74471;SDS011;62920;53.572;10.050;2023-04-26T05:27:11;6.45;;;1.48;;
74471;SDS011;62920;53.572;10.050;2023-04-26T05:29:36;5.88;;;1.50;;
74471;SDS011;62920;53.572;10.050;2023-04-26T05:32:02;7.65;;;1.92;;
74471;SDS011;62920;53.572;10.050;2023-04-26T05:34:27;6.05;;;1.73;;
74471;SDS011;62920;53.572;10.050;2023-04-26T05:36:53;7.65;;;1.58;;
74471;SDS011;62920;53.572;10.050;2023-04-26T05:39:18;7.95;;;2.10;;
74471;SDS011;62920;53.572;10.050;2023-04-26T05:41:45;6.45;;;1.60;;
74471;SDS011;62920;53.572;10.050;2023-04-26T05:44:10;5.15;;;1.73;;
74471;SDS011;62920;53.572;10.050;2023-04-26T05:46:35;4.35;;;1.92;;
74471;SDS011;62920;53.572;10.050;2023-04-26T05:49:01;7.45;;;1.70;;
74471;SDS011;62920;53.572;10.050;2023-04-26T05:51:26;5.43;;;2.10;;
74471;SDS011;62920;53.572;10.050;2023-04-26T05:53:52;5.82;;;1.90;;
74471;SDS011;62920;53.572;10.050;2023-04-26T05:56:17;7.72;;;1.73;;
74471;SDS011;62920;53.572;10.050;2023-04-26T05:58:43;3.60;;;1.45;;
74471;SDS011;62920;53.572;10.050;2023-04-26T06:01:08;11.73;;;2.08;;
74471;SDS011;62920;53.572;10.050;2023-04-26T06:03:33;9.02;;;1.90;;
74471;SDS011;62920;53.572;10.050;2023-04-26T06:05:59;6.55;;;1.77;;
74471;SDS011;62920;53.572;10.050;2023-04-26T06:08:24;9.60;;;2.03;;
74471;SDS011;62920;53.572;10.050;2023-04-26T06:10:52;10.30;;;2.17;;
74471;SDS011;62920;53.572;10.050;2023-04-26T06:13:17;6.30;;;1.83;;
74471;SDS011;62920;53.572;10.050;2023-04-26T06:15:43;7.53;;;1.88;;
74471;SDS011;62920;53.572;10.050;2023-04-26T06:18:08;6.72;;;2.10;;
74471;SDS011;62920;53.572;10.050;2023-04-26T06:20:34;8.75;;;1.95;;
74471;SDS011;62920;53.572;10.050;2023-04-26T06:23:00;7.43;;;1.67;;
74471;SDS011;62920;53.572;10.050;2023-04-26T06:25:25;6.28;;;1.73;;
74471;SDS011;62920;53.572;10.050;2023-04-26T06:27:50;9.85;;;1.73;;
74471;SDS011;62920;53.572;10.050;2023-04-26T06:30:16;6.40;;;1.77;;
74471;SDS011;62920;53.572;10.050;2023-04-26T06:32:41;9.38;;;2.13;;
74471;SDS011;62920;53.572;10.050;2023-04-26T06:35:07;6.07;;;1.67;;
74471;SDS011;62920;53.572;10.050;2023-04-26T06:37:33;7.55;;;1.95;;
74471;SDS011;62920;53.572;10.050;2023-04-26T06:39:59;8.52;;;2.20;;
74471;SDS011;62920;53.572;10.050;2023-04-26T06:42:25;5.97;;;1.77;;
74471;SDS011;62920;53.572;10.050;2023-04-26T06:44:51;6.88;;;1.77;;
74471;SDS011;62920;53.572;10.050;2023-04-26T06:47:16;6.10;;;1.88;;
74471;SDS011;62920;53.572;10.050;2023-04-26T06:49:41;7.93;;;2.15;;
74471;SDS011;62920;53.572;10.050;2023-04-26T06:52:07;9.90;;;2.08;;
74471;SDS011;62920;53.572;10.050;2023-04-26T06:54:32;6.68;;;1.75;;
74471;SDS011;62920;53.572;10.050;2023-04-26T06:56:58;10.50;;;2.38;;
74471;SDS011;62920;53.572;10.050;2023-04-26T06:59:23;7.55;;;2.35;;
74471;SDS011;62920;53.572;10.050;2023-04-26T07:01:49;5.07;;;1.73;;
74471;SDS011;62920;53.572;10.050;2023-04-26T07:04:14;6.93;;;1.90;;
74471;SDS011;62920;53.572;10.050;2023-04-26T07:06:42;10.30;;;2.05;;
74471;SDS011;62920;53.572;10.050;2023-04-26T07:09:07;5.90;;;1.50;;
74471;SDS011;62920;53.572;10.050;2023-04-26T07:11:33;7.75;;;1.52;;
74471;SDS011;62920;53.572;10.050;2023-04-26T07:13:58;8.15;;;1.77;;
74471;SDS011;62920;53.572;10.050;2023-04-26T07:16:23;9.73;;;2.47;;
74471;SDS011;62920;53.572;10.050;2023-04-26T07:18:50;7.93;;;2.35;;
74471;SDS011;62920;53.572;10.050;2023-04-26T07:21:16;6.65;;;1.70;;
74471;SDS011;62920;53.572;10.050;2023-04-26T07:23:42;5.90;;;2.03;;
74471;SDS011;62920;53.572;10.050;2023-04-26T07:26:09;9.05;;;1.70;;
74471;SDS011;62920;53.572;10.050;2023-04-26T07:28:35;4.30;;;1.67;;
74471;SDS011;62920;53.572;10.050;2023-04-26T07:31:01;5.00;;;1.50;;
74471;SDS011;62920;53.572;10.050;2023-04-26T07:33:27;8.57;;;1.58;;
74471;SDS011;62920;53.572;10.050;2023-04-26T07:35:53;7.68;;;2.00;;
74471;SDS011;62920;53.572;10.050;2023-04-26T07:38:21;5.75;;;1.35;;
74471;SDS011;62920;53.572;10.050;2023-04-26T07:40:46;8.30;;;1.85;;
74471;SDS011;62920;53.572;10.050;2023-04-26T07:43:12;5.75;;;1.60;;
74471;SDS011;62920;53.572;10.050;2023-04-26T07:45:39;6.75;;;1.55;;
74471;SDS011;62920;53.572;10.050;2023-04-26T07:48:04;7.55;;;2.38;;
74471;SDS011;62920;53.572;10.050;2023-04-26T07:50:30;7.47;;;1.40;;
74471;SDS011;62920;53.572;10.050;2023-04-26T07:52:55;5.28;;;1.50;;
74471;SDS011;62920;53.572;10.050;2023-04-26T07:55:21;5.70;;;1.80;;
74471;SDS011;62920;53.572;10.050;2023-04-26T07:57:46;8.63;;;1.40;;
74471;SDS011;62920;53.572;10.050;2023-04-26T08:00:12;5.22;;;1.40;;
74471;SDS011;62920;53.572;10.050;2023-04-26T08:02:39;6.30;;;1.23;;
74471;SDS011;62920;53.572;10.050;2023-04-26T08:05:05;4.25;;;1.30;;
74471;SDS011;62920;53.572;10.050;2023-04-26T08:07:31;4.40;;;1.30;;
74471;SDS011;62920;53.572;10.050;2023-04-26T08:09:57;2.42;;;0.95;;
74471;SDS011;62920;53.572;10.050;2023-04-26T08:12:22;1.95;;;0.65;;
74471;SDS011;62920;53.572;10.050;2023-04-26T08:14:48;2.05;;;0.70;;
74471;SDS011;62920;53.572;10.050;2023-04-26T08:17:13;2.38;;;0.90;;
74471;SDS011;62920;53.572;10.050;2023-04-26T08:19:38;4.18;;;0.88;;
74471;SDS011;62920;53.572;10.050;2023-04-26T08:22:05;3.15;;;0.80;;
74471;SDS011;62920;53.572;10.050;2023-04-26T08:24:31;5.05;;;0.98;;
74471;SDS011;62920;53.572;10.050;2023-04-26T08:26:56;2.47;;;0.90;;
74471;SDS011;62920;53.572;10.050;2023-04-26T08:29:25;4.93;;;1.02;;
74471;SDS011;62920;53.572;10.050;2023-04-26T08:31:51;6.13;;;1.05;;
74471;SDS011;62920;53.572;10.050;2023-04-26T08:34:16;5.97;;;1.40;;
74471;SDS011;62920;53.572;10.050;2023-04-26T08:36:42;7.00;;;1.20;;
74471;SDS011;62920;53.572;10.050;2023-04-26T08:39:07;6.80;;;0.95;;
74471;SDS011;62920;53.572;10.050;2023-04-26T08:41:36;6.18;;;1.10;;
74471;SDS011;62920;53.572;10.050;2023-04-26T08:44:06;6.32;;;1.48;;
74471;SDS011;62920;53.572;10.050;2023-04-26T08:49:39;5.70;;;1.30;;
74471;SDS011;62920;53.572;10.050;2023-04-26T08:52:10;4.63;;;1.75;;
74471;SDS011;62920;53.572;10.050;2023-04-26T08:54:36;5.47;;;1.33;;
74471;SDS011;62920;53.572;10.050;2023-04-26T08:57:02;5.03;;;1.52;;
74471;SDS011;62920;53.572;10.050;2023-04-26T08:59:28;7.75;;;1.58;;
74471;SDS011;62920;53.572;10.050;2023-04-26T09:01:55;8.27;;;1.55;;
74471;SDS011;62920;53.572;10.050;2023-04-26T09:04:21;7.63;;;1.60;;
74471;SDS011;62920;53.572;10.050;2023-04-26T09:06:46;6.00;;;1.77;;
74471;SDS011;62920;53.572;10.050;2023-04-26T09:09:12;5.03;;;1.65;;
74471;SDS011;62920;53.572;10.050;2023-04-26T09:14:21;6.18;;;1.75;;
74471;SDS011;62920;53.572;10.050;2023-04-26T09:16:46;6.88;;;1.63;;
74471;SDS011;62920;53.572;10.050;2023-04-26T09:19:11;3.25;;;1.35;;
74471;SDS011;62920;53.572;10.050;2023-04-26T09:21:44;7.35;;;1.83;;
74471;SDS011;62920;53.572;10.050;2023-04-26T09:24:10;6.35;;;1.80;;
74471;SDS011;62920;53.572;10.050;2023-04-26T09:26:35;8.35;;;1.52;;
74471;SDS011;62920;53.572;10.050;2023-04-26T09:29:14;5.75;;;1.70;;
74471;SDS011;62920;53.572;10.050;2023-04-26T09:34:09;6.60;;;1.30;;
74471;SDS011;62920;53.572;10.050;2023-04-26T09:39:31;6.53;;;1.30;;
74471;SDS011;62920;53.572;10.050;2023-04-26T09:41:59;7.18;;;1.95;;
74471;SDS011;62920;53.572;10.050;2023-04-26T09:44:24;32.08;;;2.42;;
74471;SDS011;62920;53.572;10.050;2023-04-26T09:47:03;15.70;;;1.17;;
74471;SDS011;62920;53.572;10.050;2023-04-26T10:04:52;15.32;;;1.75;;
74471;SDS011;62920;53.572;10.050;2023-04-26T10:07:20;5.68;;;1.50;;
74471;SDS011;62920;53.572;10.050;2023-04-26T10:09:47;4.85;;;0.95;;
74471;SDS011;62920;53.572;10.050;2023-04-26T10:12:13;4.72;;;0.90;;
74471;SDS011;62920;53.572;10.050;2023-04-26T10:14:40;3.13;;;1.00;;
74471;SDS011;62920;53.572;10.050;2023-04-26T10:17:06;5.30;;;0.93;;
74471;SDS011;62920;53.572;10.050;2023-04-26T10:19:33;3.50;;;0.82;;
74471;SDS011;62920;53.572;10.050;2023-04-26T10:22:02;6.25;;;0.90;;
74471;SDS011;62920;53.572;10.050;2023-04-26T10:24:30;8.88;;;1.02;;
74471;SDS011;62920;53.572;10.050;2023-04-26T10:26:55;5.35;;;1.17;;
74471;SDS011;62920;53.572;10.050;2023-04-26T10:29:24;4.35;;;1.05;;
74471;SDS011;62920;53.572;10.050;2023-04-26T10:34:26;4.55;;;1.08;;
74471;SDS011;62920;53.572;10.050;2023-04-26T10:39:50;3.85;;;1.08;;
74471;SDS011;62920;53.572;10.050;2023-04-26T10:42:48;4.32;;;0.95;;
74471;SDS011;62920;53.572;10.050;2023-04-26T10:45:26;6.10;;;1.10;;
74471;SDS011;62920;53.572;10.050;2023-04-26T10:48:35;7.18;;;1.45;;
74471;SDS011;62920;53.572;10.050;2023-04-26T10:53:30;3.63;;;1.10;;
74471;SDS011;62920;53.572;10.050;2023-04-26T10:55:56;4.22;;;0.95;;
74471;SDS011;62920;53.572;10.050;2023-04-26T11:01:07;7.13;;;1.17;;
74471;SDS011;62920;53.572;10.050;2023-04-26T11:03:37;3.88;;;1.02;;
74471;SDS011;62920;53.572;10.050;2023-04-26T11:06:06;3.17;;;0.90;;
74471;SDS011;62920;53.572;10.050;2023-04-26T11:08:33;4.00;;;0.80;;
74471;SDS011;62920;53.572;10.050;2023-04-26T11:13:29;3.28;;;0.75;;
74471;SDS011;62920;53.572;10.050;2023-04-26T11:16:02;5.40;;;1.00;;
74471;SDS011;62920;53.572;10.050;2023-04-26T11:18:32;2.30;;;0.73;;
74471;SDS011;62920;53.572;10.050;2023-04-26T11:20:58;2.38;;;0.75;;
74471;SDS011;62920;53.572;10.050;2023-04-26T11:23:24;5.45;;;0.95;;
74471;SDS011;62920;53.572;10.050;2023-04-26T11:25:51;3.53;;;1.05;;
74471;SDS011;62920;53.572;10.050;2023-04-26T11:28:18;4.72;;;0.90;;
74471;SDS011;62920;53.572;10.050;2023-04-26T11:30:44;3.53;;;0.82;;
74471;SDS011;62920;53.572;10.050;2023-04-26T11:33:16;5.10;;;1.00;;
74471;SDS011;62920;53.572;10.050;2023-04-26T11:35:44;6.20;;;1.27;;
74471;SDS011;62920;53.572;10.050;2023-04-26T11:38:10;6.43;;;1.10;;
74471;SDS011;62920;53.572;10.050;2023-04-26T11:40:36;5.63;;;1.17;;
74471;SDS011;62920;53.572;10.050;2023-04-26T11:43:05;4.82;;;1.67;;
74471;SDS011;62920;53.572;10.050;2023-04-26T11:45:34;4.15;;;0.95;;
74471;SDS011;62920;53.572;10.050;2023-04-26T11:48:00;4.00;;;0.90;;
74471;SDS011;62920;53.572;10.050;2023-04-26T11:50:27;4.43;;;0.60;;
74471;SDS011;62920;53.572;10.050;2023-04-26T11:52:53;4.97;;;0.60;;
74471;SDS011;62920;53.572;10.050;2023-04-26T11:55:22;5.85;;;0.75;;
74471;SDS011;62920;53.572;10.050;2023-04-26T11:57:49;6.22;;;0.85;;
74471;SDS011;62920;53.572;10.050;2023-04-26T12:00:15;2.85;;;0.68;;
74471;SDS011;62920;53.572;10.050;2023-04-26T12:02:44;3.60;;;0.50;;
74471;SDS011;62920;53.572;10.050;2023-04-26T12:05:19;3.95;;;0.85;;
74471;SDS011;62920;53.572;10.050;2023-04-26T12:07:52;5.63;;;0.90;;
74471;SDS011;62920;53.572;10.050;2023-04-26T12:10:20;2.42;;;0.82;;
74471;SDS011;62920;53.572;10.050;2023-04-26T12:12:47;3.17;;;0.50;;
74471;SDS011;62920;53.572;10.050;2023-04-26T12:17:51;3.85;;;1.05;;
74471;SDS011;62920;53.572;10.050;2023-04-26T12:20:36;3.78;;;0.82;;
74471;SDS011;62920;53.572;10.050;2023-04-26T12:23:04;2.13;;;0.68;;
74471;SDS011;62920;53.572;10.050;2023-04-26T12:25:30;3.90;;;0.80;;
74471;SDS011;62920;53.572;10.050;2023-04-26T12:27:57;5.63;;;1.00;;
74471;SDS011;62920;53.572;10.050;2023-04-26T12:30:23;5.95;;;0.75;;
74471;SDS011;62920;53.572;10.050;2023-04-26T12:32:49;2.45;;;0.60;;
74471;SDS011;62920;53.572;10.050;2023-04-26T12:35:15;3.42;;;0.70;;
74471;SDS011;62920;53.572;10.050;2023-04-26T12:37:40;3.17;;;0.70;;
74471;SDS011;62920;53.572;10.050;2023-04-26T12:40:06;3.47;;;0.75;;
74471;SDS011;62920;53.572;10.050;2023-04-26T12:42:33;8.35;;;0.80;;
74471;SDS011;62920;53.572;10.050;2023-04-26T12:44:58;3.17;;;0.75;;
74471;SDS011;62920;53.572;10.050;2023-04-26T12:47:24;5.18;;;1.00;;
74471;SDS011;62920;53.572;10.050;2023-04-26T12:49:49;2.60;;;0.63;;
74471;SDS011;62920;53.572;10.050;2023-04-26T12:52:14;6.03;;;0.75;;
74471;SDS011;62920;53.572;10.050;2023-04-26T12:54:40;2.92;;;0.68;;
74471;SDS011;62920;53.572;10.050;2023-04-26T12:57:05;3.05;;;0.77;;
74471;SDS011;62920;53.572;10.050;2023-04-26T12:59:31;2.70;;;0.75;;
74471;SDS011;62920;53.572;10.050;2023-04-26T13:01:57;4.72;;;1.15;;
74471;SDS011;62920;53.572;10.050;2023-04-26T13:04:22;2.63;;;0.60;;
74471;SDS011;62920;53.572;10.050;2023-04-26T13:06:48;2.55;;;0.60;;
74471;SDS011;62920;53.572;10.050;2023-04-26T13:09:13;3.50;;;0.80;;
74471;SDS011;62920;53.572;10.050;2023-04-26T13:11:39;4.60;;;0.85;;
74471;SDS011;62920;53.572;10.050;2023-04-26T13:14:04;2.20;;;0.70;;
74471;SDS011;62920;53.572;10.050;2023-04-26T13:16:31;4.85;;;1.00;;
74471;SDS011;62920;53.572;10.050;2023-04-26T13:18:57;3.67;;;0.90;;
74471;SDS011;62920;53.572;10.050;2023-04-26T13:21:22;8.43;;;1.02;;
74471;SDS011;62920;53.572;10.050;2023-04-26T13:23:48;2.05;;;0.50;;
74471;SDS011;62920;53.572;10.050;2023-04-26T13:26:13;4.15;;;0.80;;
74471;SDS011;62920;53.572;10.050;2023-04-26T13:28:41;4.75;;;0.70;;
74471;SDS011;62920;53.572;10.050;2023-04-26T13:31:06;5.50;;;1.00;;
74471;SDS011;62920;53.572;10.050;2023-04-26T13:33:32;2.30;;;1.05;;
74471;SDS011;62920;53.572;10.050;2023-04-26T13:35:57;4.55;;;0.70;;
74471;SDS011;62920;53.572;10.050;2023-04-26T13:38:23;3.45;;;0.70;;
74471;SDS011;62920;53.572;10.050;2023-04-26T13:40:49;4.65;;;1.02;;
74471;SDS011;62920;53.572;10.050;2023-04-26T13:43:14;4.63;;;0.93;;
74471;SDS011;62920;53.572;10.050;2023-04-26T13:45:40;6.07;;;0.65;;
74471;SDS011;62920;53.572;10.050;2023-04-26T13:48:05;4.25;;;0.77;;
74471;SDS011;62920;53.572;10.050;2023-04-26T13:50:30;3.70;;;0.60;;
74471;SDS011;62920;53.572;10.050;2023-04-26T13:52:56;2.63;;;0.70;;
74471;SDS011;62920;53.572;10.050;2023-04-26T13:55:21;5.22;;;1.20;;
74471;SDS011;62920;53.572;10.050;2023-04-26T13:57:47;3.58;;;0.70;;
74471;SDS011;62920;53.572;10.050;2023-04-26T14:00:12;4.47;;;0.75;;
74471;SDS011;62920;53.572;10.050;2023-04-26T14:02:38;4.68;;;0.80;;
74471;SDS011;62920;53.572;10.050;2023-04-26T14:05:03;3.28;;;0.60;;
74471;SDS011;62920;53.572;10.050;2023-04-26T14:07:29;3.88;;;0.70;;
74471;SDS011;62920;53.572;10.050;2023-04-26T14:09:55;2.65;;;0.95;;
74471;SDS011;62920;53.572;10.050;2023-04-26T14:12:20;2.42;;;0.52;;
74471;SDS011;62920;53.572;10.050;2023-04-26T14:14:46;4.03;;;0.75;;
74471;SDS011;62920;53.572;10.050;2023-04-26T14:17:12;7.50;;;0.85;;
74471;SDS011;62920;53.572;10.050;2023-04-26T14:19:37;2.47;;;0.60;;
74471;SDS011;62920;53.572;10.050;2023-04-26T14:22:03;2.22;;;0.65;;
74471;SDS011;62920;53.572;10.050;2023-04-26T14:24:28;5.18;;;0.73;;
74471;SDS011;62920;53.572;10.050;2023-04-26T14:26:54;4.63;;;0.80;;
74471;SDS011;62920;53.572;10.050;2023-04-26T14:29:19;6.47;;;1.00;;
74471;SDS011;62920;53.572;10.050;2023-04-26T14:31:45;2.88;;;0.65;;
74471;SDS011;62920;53.572;10.050;2023-04-26T14:34:11;2.83;;;0.57;;
74471;SDS011;62920;53.572;10.050;2023-04-26T14:36:37;2.72;;;0.60;;
74471;SDS011;62920;53.572;10.050;2023-04-26T14:39:02;3.45;;;0.70;;
74471;SDS011;62920;53.572;10.050;2023-04-26T14:41:28;2.42;;;0.85;;
74471;SDS011;62920;53.572;10.050;2023-04-26T14:43:53;5.18;;;0.70;;
74471;SDS011;62920;53.572;10.050;2023-04-26T14:46:18;2.90;;;0.52;;
74471;SDS011;62920;53.572;10.050;2023-04-26T14:48:44;4.60;;;0.73;;
74471;SDS011;62920;53.572;10.050;2023-04-26T14:51:10;7.88;;;1.42;;
74471;SDS011;62920;53.572;10.050;2023-04-26T14:53:35;5.82;;;1.08;;
74471;SDS011;62920;53.572;10.050;2023-04-26T14:56:01;3.15;;;0.90;;
74471;SDS011;62920;53.572;10.050;2023-04-26T14:58:26;2.15;;;0.50;;
74471;SDS011;62920;53.572;10.050;2023-04-26T15:00:52;2.75;;;0.60;;
74471;SDS011;62920;53.572;10.050;2023-04-26T15:03:18;4.38;;;0.75;;
74471;SDS011;62920;53.572;10.050;2023-04-26T15:05:44;2.33;;;0.73;;
74471;SDS011;62920;53.572;10.050;2023-04-26T15:08:10;3.88;;;1.08;;
74471;SDS011;62920;53.572;10.050;2023-04-26T15:10:35;6.90;;;0.70;;